Time;durP1;ratioP1;P1;durP2;ratioP2;P2;SDS_P1;SDS_P2;PMS_P1;PMS_P2;Temp;Humidity;BMP_temperature;BMP_pressure;BME280_temperature;BME280_humidity;BME280_pressure;Samples;Min_cycle;Max_cycle;Signal;HPM_P1;HPM_P2
2022/01/07 00:02:07;;;;;;;12.37;5.03;;;;;;;;;;5019051;28;20235;-56
2022/01/07 00:04:35;;;;;;;12.10;4.50;;;;;;;;;;5008885;28;20656;-56
2022/01/07 00:07:02;;;;;;;7.93;4.80;;;;;;;;;;5016391;28;20229;-56
2022/01/07 00:09:27;;;;;;;10.53;4.77;;;;;;;;;;5022234;28;20241;-56
2022/01/07 00:11:53;;;;;;;8.50;4.50;;;;;;;;;;5014023;28;20307;-56
2022/01/07 00:14:19;;;;;;;14.17;5.17;;;;;;;;;;5011581;28;20220;-56
2022/01/07 00:16:46;;;;;;;13.57;5.20;;;;;;;;;;5011088;28;20235;-56
2022/01/07 00:19:12;;;;;;;8.20;4.03;;;;;;;;;;5007661;28;20271;-56
2022/01/07 00:21:38;;;;;;;13.33;4.93;;;;;;;;;;5020786;28;20264;-56
2022/01/07 00:24:04;;;;;;;18.57;5.60;;;;;;;;;;5014851;28;20220;-56
2022/01/07 00:26:30;;;;;;;18.20;5.37;;;;;;;;;;5003017;28;20288;-56
2022/01/07 00:28:56;;;;;;;8.73;4.90;;;;;;;;;;5010125;28;20224;-56
2022/01/07 00:31:22;;;;;;;7.47;4.63;;;;;;;;;;5001943;28;20251;-57
2022/01/07 00:33:48;;;;;;;8.17;4.97;;;;;;;;;;4998802;28;20474;-56
2022/01/07 00:36:14;;;;;;;10.27;4.63;;;;;;;;;;5016159;28;20379;-56
2022/01/07 00:38:40;;;;;;;11.43;4.70;;;;;;;;;;5008656;28;20728;-56
2022/01/07 00:41:07;;;;;;;11.17;5.27;;;;;;;;;;5009909;28;20239;-57
2022/01/07 00:43:33;;;;;;;10.60;4.90;;;;;;;;;;5013974;28;20240;-56
2022/01/07 00:45:59;;;;;;;8.43;5.00;;;;;;;;;;5008281;28;20243;-56
2022/01/07 00:48:25;;;;;;;11.27;4.90;;;;;;;;;;5004919;28;20582;-56
2022/01/07 00:50:51;;;;;;;10.30;4.90;;;;;;;;;;5004257;28;20223;-56
2022/01/07 00:53:17;;;;;;;8.87;4.80;;;;;;;;;;5002035;28;20244;-56
2022/01/07 00:55:43;;;;;;;10.03;5.13;;;;;;;;;;5011496;28;20255;-56
2022/01/07 00:58:10;;;;;;;12.13;5.20;;;;;;;;;;5010117;28;20344;-56
2022/01/07 01:00:35;;;;;;;9.60;5.00;;;;;;;;;;5004371;28;20681;-56
2022/01/07 01:03:01;;;;;;;13.00;4.97;;;;;;;;;;4996904;28;20251;-56
2022/01/07 01:05:28;;;;;;;11.47;4.90;;;;;;;;;;4993515;28;20665;-57
2022/01/07 01:07:54;;;;;;;12.70;5.40;;;;;;;;;;4982224;28;21142;-57
2022/01/07 01:10:20;;;;;;;11.80;5.13;;;;;;;;;;4991464;28;20237;-57
2022/01/07 01:12:46;;;;;;;11.47;5.13;;;;;;;;;;4991352;28;20706;-57
2022/01/07 01:15:13;;;;;;;7.93;4.43;;;;;;;;;;4988437;28;20697;-56
2022/01/07 01:17:39;;;;;;;12.10;5.07;;;;;;;;;;4973951;28;25223;-56
2022/01/07 01:20:06;;;;;;;12.13;5.13;;;;;;;;;;4998165;28;20235;-56
2022/01/07 01:22:32;;;;;;;8.57;4.60;;;;;;;;;;5000151;28;20242;-57
2022/01/07 01:24:58;;;;;;;10.33;4.60;;;;;;;;;;4994768;28;20296;-57
2022/01/07 01:27:24;;;;;;;9.10;4.63;;;;;;;;;;4999460;28;20281;-57
2022/01/07 01:29:50;;;;;;;9.20;4.63;;;;;;;;;;4988403;28;20237;-57
2022/01/07 01:32:16;;;;;;;12.20;4.83;;;;;;;;;;4985814;28;20366;-56
2022/01/07 01:34:43;;;;;;;9.97;5.17;;;;;;;;;;4982706;28;20722;-56
2022/01/07 01:37:09;;;;;;;12.00;5.40;;;;;;;;;;5000625;28;20232;-56
2022/01/07 01:39:34;;;;;;;9.77;5.40;;;;;;;;;;4990480;28;20240;-56
2022/01/07 01:42:00;;;;;;;8.53;4.77;;;;;;;;;;4999205;28;20236;-57
2022/01/07 01:44:26;;;;;;;12.80;5.30;;;;;;;;;;4985481;28;20335;-56
2022/01/07 01:46:53;;;;;;;10.63;5.40;;;;;;;;;;4989615;28;20235;-56
2022/01/07 01:49:19;;;;;;;10.70;5.27;;;;;;;;;;4990004;28;20322;-56
2022/01/07 01:51:45;;;;;;;9.47;4.63;;;;;;;;;;4992484;28;20356;-56
2022/01/07 01:54:11;;;;;;;9.13;5.00;;;;;;;;;;4973453;28;20609;-56
2022/01/07 01:56:37;;;;;;;12.90;5.20;;;;;;;;;;4999170;28;20240;-56
2022/01/07 01:59:03;;;;;;;13.23;5.30;;;;;;;;;;4972030;28;22530;-56
2022/01/07 02:01:29;;;;;;;9.50;5.17;;;;;;;;;;5000314;28;20235;-56
2022/01/07 02:03:55;;;;;;;9.80;5.30;;;;;;;;;;5001204;28;20349;-56
2022/01/07 02:06:21;;;;;;;9.73;4.60;;;;;;;;;;4997879;28;20232;-57
2022/01/07 02:08:47;;;;;;;9.53;5.20;;;;;;;;;;4993430;28;20233;-56
2022/01/07 02:11:13;;;;;;;11.30;4.93;;;;;;;;;;4993373;28;20249;-56
2022/01/07 02:13:39;;;;;;;7.97;4.90;;;;;;;;;;4993327;28;20244;-56
2022/01/07 02:16:05;;;;;;;7.73;4.80;;;;;;;;;;4995846;28;20242;-57
2022/01/07 02:18:31;;;;;;;9.23;4.80;;;;;;;;;;5005906;28;21401;-56
2022/01/07 02:20:57;;;;;;;10.20;5.07;;;;;;;;;;4987811;28;20644;-57
2022/01/07 02:23:22;;;;;;;9.47;5.40;;;;;;;;;;4992493;28;20433;-56
2022/01/07 02:25:49;;;;;;;10.70;5.10;;;;;;;;;;4997972;28;20323;-56
2022/01/07 02:28:15;;;;;;;7.87;4.87;;;;;;;;;;5003789;28;20635;-56
2022/01/07 02:30:41;;;;;;;8.60;4.63;;;;;;;;;;4988526;28;20240;-57
2022/01/07 02:33:06;;;;;;;10.07;4.70;;;;;;;;;;5014416;28;21280;-56
2022/01/07 02:35:33;;;;;;;11.03;4.57;;;;;;;;;;5015438;28;20286;-56
2022/01/07 02:37:59;;;;;;;7.97;4.33;;;;;;;;;;5002143;28;20295;-56
2022/01/07 02:40:25;;;;;;;7.83;4.83;;;;;;;;;;5012550;28;20832;-56
2022/01/07 02:42:51;;;;;;;10.77;4.50;;;;;;;;;;5010093;28;20339;-56
2022/01/07 02:45:17;;;;;;;6.33;4.50;;;;;;;;;;5008660;28;22421;-56
2022/01/07 02:47:53;;;;;;;12.03;4.50;;;;;;;;;;4998574;28;20794;-57
2022/01/07 02:50:23;;;;;;;9.10;4.73;;;;;;;;;;4991980;28;20618;-56
2022/01/07 02:52:49;;;;;;;8.03;4.70;;;;;;;;;;4988150;28;20955;-56
2022/01/07 02:55:17;;;;;;;8.53;4.60;;;;;;;;;;4990546;28;20704;-56
2022/01/07 02:57:43;;;;;;;6.43;4.30;;;;;;;;;;4994940;28;20842;-55
2022/01/07 03:00:09;;;;;;;7.10;4.63;;;;;;;;;;5001354;28;20225;-57
2022/01/07 03:02:35;;;;;;;8.07;4.63;;;;;;;;;;4991717;28;20756;-57
2022/01/07 03:05:01;;;;;;;8.93;4.93;;;;;;;;;;4985163;28;20236;-57
2022/01/07 03:07:29;;;;;;;6.20;4.70;;;;;;;;;;4990505;28;20224;-57
2022/01/07 03:09:55;;;;;;;6.37;4.73;;;;;;;;;;4974541;28;20346;-57
2022/01/07 03:12:21;;;;;;;8.63;4.70;;;;;;;;;;4986128;28;20436;-57
2022/01/07 03:14:48;;;;;;;8.27;4.57;;;;;;;;;;4989146;28;22674;-57
2022/01/07 03:17:14;;;;;;;6.90;4.63;;;;;;;;;;4981160;28;20336;-57
2022/01/07 03:19:40;;;;;;;8.20;4.37;;;;;;;;;;4992202;28;20301;-57
2022/01/07 03:22:06;;;;;;;6.13;4.70;;;;;;;;;;4990162;28;20259;-57
2022/01/07 03:24:32;;;;;;;9.77;4.73;;;;;;;;;;4981790;28;20227;-57
2022/01/07 03:26:58;;;;;;;6.47;4.50;;;;;;;;;;4976129;28;20327;-57
2022/01/07 03:29:24;;;;;;;7.23;4.93;;;;;;;;;;4990093;28;20254;-57
2022/01/07 03:31:50;;;;;;;11.00;5.17;;;;;;;;;;4979233;28;20243;-58
2022/01/07 03:34:16;;;;;;;6.70;4.70;;;;;;;;;;4982747;28;20233;-57
2022/01/07 03:36:42;;;;;;;8.93;4.60;;;;;;;;;;4986101;28;20237;-58
2022/01/07 03:39:08;;;;;;;11.27;4.57;;;;;;;;;;4987022;28;20835;-57
2022/01/07 03:41:34;;;;;;;8.03;4.60;;;;;;;;;;4979430;28;20727;-57
2022/01/07 03:44:00;;;;;;;8.90;5.10;;;;;;;;;;4978991;28;25224;-57
2022/01/07 03:46:26;;;;;;;8.00;4.60;;;;;;;;;;4996750;28;20228;-57
2022/01/07 03:48:52;;;;;;;9.23;5.37;;;;;;;;;;4988623;28;21012;-58
2022/01/07 03:51:18;;;;;;;9.60;5.13;;;;;;;;;;4988277;28;21103;-57
2022/01/07 03:53:44;;;;;;;7.83;4.17;;;;;;;;;;4992143;28;20224;-57
2022/01/07 03:56:17;;;;;;;6.90;4.13;;;;;;;;;;4999636;28;20251;-57
2022/01/07 03:58:43;;;;;;;7.07;4.47;;;;;;;;;;5000236;28;20248;-57
2022/01/07 04:01:09;;;;;;;10.73;4.80;;;;;;;;;;4992586;28;20248;-57
2022/01/07 04:03:35;;;;;;;10.03;4.90;;;;;;;;;;4981444;28;20267;-56
2022/01/07 04:06:01;;;;;;;9.53;5.10;;;;;;;;;;5000753;28;20380;-57
2022/01/07 04:08:27;;;;;;;8.87;4.43;;;;;;;;;;4989518;28;21634;-56
2022/01/07 04:10:53;;;;;;;6.50;4.23;;;;;;;;;;4985041;28;20782;-57
2022/01/07 04:13:18;;;;;;;11.73;5.07;;;;;;;;;;4983329;28;20363;-56
2022/01/07 04:15:44;;;;;;;9.90;4.47;;;;;;;;;;4981821;28;20526;-57
2022/01/07 04:18:10;;;;;;;8.03;4.70;;;;;;;;;;4988832;28;20305;-57
2022/01/07 04:20:36;;;;;;;10.93;4.70;;;;;;;;;;4982594;28;21598;-57
2022/01/07 04:23:03;;;;;;;8.30;4.53;;;;;;;;;;4972853;28;20454;-56
2022/01/07 04:25:29;;;;;;;8.47;4.20;;;;;;;;;;4987155;28;20229;-57
2022/01/07 04:27:58;;;;;;;6.57;4.10;;;;;;;;;;4984667;28;20229;-57
2022/01/07 04:30:25;;;;;;;6.47;4.20;;;;;;;;;;4985892;28;20216;-57
2022/01/07 04:32:53;;;;;;;9.03;4.67;;;;;;;;;;4978393;28;20331;-57
2022/01/07 04:35:19;;;;;;;6.13;3.83;;;;;;;;;;4976606;28;20228;-57
2022/01/07 04:37:45;;;;;;;7.37;4.20;;;;;;;;;;4981042;28;20294;-57
2022/01/07 04:40:11;;;;;;;5.53;3.97;;;;;;;;;;4986699;28;20242;-57
2022/01/07 04:42:37;;;;;;;9.93;4.10;;;;;;;;;;4983324;28;20235;-57
2022/01/07 04:45:04;;;;;;;8.60;3.80;;;;;;;;;;4990138;28;21351;-57
2022/01/07 04:47:31;;;;;;;8.83;4.13;;;;;;;;;;4989454;28;20260;-57
2022/01/07 04:49:57;;;;;;;12.10;4.33;;;;;;;;;;4992302;28;20232;-57
2022/01/07 04:52:23;;;;;;;7.57;3.97;;;;;;;;;;4992574;28;20235;-56
2022/01/07 04:54:49;;;;;;;5.77;3.53;;;;;;;;;;4996283;28;20237;-57
2022/01/07 04:57:15;;;;;;;6.53;4.00;;;;;;;;;;5002239;28;20232;-57
2022/01/07 04:59:41;;;;;;;8.53;3.80;;;;;;;;;;4973963;28;20241;-57
2022/01/07 05:02:07;;;;;;;9.13;3.60;;;;;;;;;;4996026;28;20845;-56
2022/01/07 05:04:33;;;;;;;7.33;3.27;;;;;;;;;;4992076;28;20773;-57
2022/01/07 05:06:59;;;;;;;9.90;4.07;;;;;;;;;;4997395;28;20248;-57
2022/01/07 05:09:25;;;;;;;5.50;3.23;;;;;;;;;;4989237;28;20414;-57
2022/01/07 05:11:52;;;;;;;5.90;3.43;;;;;;;;;;4991509;28;20268;-57
2022/01/07 05:14:19;;;;;;;7.97;3.53;;;;;;;;;;4989980;28;20758;-57
2022/01/07 05:16:45;;;;;;;5.77;3.20;;;;;;;;;;4986140;28;20239;-56
2022/01/07 05:19:11;;;;;;;5.43;3.17;;;;;;;;;;4983970;28;20592;-57
2022/01/07 05:21:37;;;;;;;5.90;3.20;;;;;;;;;;4987360;28;20263;-56
2022/01/07 05:24:03;;;;;;;8.13;3.67;;;;;;;;;;4990001;28;21027;-58
2022/01/07 05:26:29;;;;;;;5.87;3.67;;;;;;;;;;4988828;28;20353;-57
2022/01/07 05:28:55;;;;;;;11.87;3.87;;;;;;;;;;4999354;28;20243;-57
2022/01/07 05:31:24;;;;;;;4.77;3.10;;;;;;;;;;4979163;28;20260;-57
2022/01/07 05:33:51;;;;;;;9.87;3.20;;;;;;;;;;4999264;28;20230;-56
2022/01/07 05:36:17;;;;;;;6.80;3.07;;;;;;;;;;4976801;28;20281;-57
2022/01/07 05:38:43;;;;;;;8.80;3.17;;;;;;;;;;4972127;28;20750;-57
2022/01/07 05:41:09;;;;;;;6.47;3.30;;;;;;;;;;4995092;28;20245;-57
2022/01/07 05:43:35;;;;;;;5.93;3.27;;;;;;;;;;4999199;28;20294;-57
2022/01/07 05:46:01;;;;;;;6.37;3.03;;;;;;;;;;5005092;28;20235;-57
2022/01/07 05:48:27;;;;;;;4.80;2.70;;;;;;;;;;4994946;28;20475;-57
2022/01/07 05:50:53;;;;;;;4.37;2.67;;;;;;;;;;4983351;28;20685;-57
2022/01/07 05:53:19;;;;;;;5.90;2.87;;;;;;;;;;4991027;28;20356;-58
2022/01/07 05:55:45;;;;;;;5.97;2.70;;;;;;;;;;4996343;28;20239;-57
2022/01/07 05:58:11;;;;;;;10.00;2.40;;;;;;;;;;4996145;28;20539;-57
2022/01/07 06:00:37;;;;;;;9.10;3.00;;;;;;;;;;5005462;28;20236;-57
2022/01/07 06:03:03;;;;;;;6.03;2.60;;;;;;;;;;4997552;28;20741;-58
2022/01/07 06:05:28;;;;;;;4.93;2.37;;;;;;;;;;5003453;28;20459;-57
2022/01/07 06:07:54;;;;;;;2.67;2.00;;;;;;;;;;4985490;28;21725;-57
2022/01/07 06:10:20;;;;;;;2.90;1.90;;;;;;;;;;4998739;28;20316;-58
2022/01/07 06:12:46;;;;;;;6.03;2.33;;;;;;;;;;4990632;28;20835;-57
2022/01/07 06:15:12;;;;;;;5.77;2.47;;;;;;;;;;4985485;28;20374;-58
2022/01/07 06:17:38;;;;;;;3.30;2.27;;;;;;;;;;4990279;28;20327;-57
2022/01/07 06:20:05;;;;;;;5.00;2.63;;;;;;;;;;4984827;28;20240;-57
2022/01/07 06:22:31;;;;;;;4.40;2.43;;;;;;;;;;4989861;28;20251;-58
2022/01/07 06:24:57;;;;;;;3.87;2.23;;;;;;;;;;4991807;28;20501;-58
2022/01/07 06:27:23;;;;;;;3.20;2.70;;;;;;;;;;4999973;28;20604;-58
2022/01/07 06:29:49;;;;;;;3.53;2.57;;;;;;;;;;4989336;28;20274;-58
2022/01/07 06:32:15;;;;;;;4.37;2.47;;;;;;;;;;4974683;28;20371;-58
2022/01/07 06:34:41;;;;;;;3.93;2.50;;;;;;;;;;4984199;28;20266;-58
2022/01/07 06:37:07;;;;;;;4.37;2.23;;;;;;;;;;4989162;28;20330;-58
2022/01/07 06:39:34;;;;;;;4.50;2.53;;;;;;;;;;4993496;28;20716;-57
2022/01/07 06:42:00;;;;;;;3.03;2.30;;;;;;;;;;4994551;28;22291;-58
2022/01/07 06:44:26;;;;;;;4.43;2.73;;;;;;;;;;4992770;28;20338;-57
2022/01/07 06:46:53;;;;;;;5.47;2.97;;;;;;;;;;4995754;28;20746;-58
2022/01/07 06:49:19;;;;;;;4.87;2.90;;;;;;;;;;4993942;28;20729;-57
2022/01/07 06:51:45;;;;;;;2.67;2.37;;;;;;;;;;4996696;28;20233;-57
2022/01/07 06:54:11;;;;;;;4.53;2.53;;;;;;;;;;4996183;28;20930;-57
2022/01/07 06:56:40;;;;;;;3.33;2.50;;;;;;;;;;4994692;28;20240;-58
2022/01/07 06:59:06;;;;;;;4.40;2.40;;;;;;;;;;4999868;28;20291;-57
2022/01/07 07:01:32;;;;;;;4.10;2.50;;;;;;;;;;4992370;28;21270;-57
2022/01/07 07:03:58;;;;;;;2.50;2.30;;;;;;;;;;4995245;28;20652;-58
2022/01/07 07:06:24;;;;;;;3.97;2.57;;;;;;;;;;4996150;28;20276;-57
2022/01/07 07:08:50;;;;;;;3.53;2.23;;;;;;;;;;4991802;28;20780;-57
2022/01/07 07:11:16;;;;;;;2.97;2.50;;;;;;;;;;4993006;28;20660;-58
2022/01/07 07:13:42;;;;;;;3.33;2.43;;;;;;;;;;5000090;28;20259;-57
2022/01/07 07:16:08;;;;;;;3.40;2.87;;;;;;;;;;4995440;28;20247;-57
2022/01/07 07:18:34;;;;;;;2.73;2.43;;;;;;;;;;4997040;28;20546;-57
2022/01/07 07:21:00;;;;;;;3.40;2.50;;;;;;;;;;4979590;28;20242;-57
2022/01/07 07:23:26;;;;;;;4.03;2.80;;;;;;;;;;4994952;28;20709;-58
2022/01/07 07:25:52;;;;;;;4.00;2.80;;;;;;;;;;4986607;28;20936;-57
2022/01/07 07:28:18;;;;;;;4.97;2.60;;;;;;;;;;4999748;28;20298;-57
2022/01/07 07:30:45;;;;;;;4.70;2.80;;;;;;;;;;4994802;28;20323;-57
2022/01/07 07:38:38;;;;;;;4.47;2.70;;;;;;;;;;4991344;28;20675;-58
2022/01/07 07:41:06;;;;;;;4.63;2.43;;;;;;;;;;4998971;28;20232;-57
2022/01/07 07:43:32;;;;;;;3.60;2.33;;;;;;;;;;4992709;28;21005;-57
2022/01/07 07:45:58;;;;;;;4.33;2.60;;;;;;;;;;5016961;28;20238;-57
2022/01/07 07:48:24;;;;;;;4.57;2.53;;;;;;;;;;5000043;28;20849;-57
2022/01/07 07:50:50;;;;;;;5.13;2.40;;;;;;;;;;4990173;28;20262;-58
2022/01/07 07:53:16;;;;;;;3.87;2.73;;;;;;;;;;4988212;28;20240;-57
2022/01/07 07:55:43;;;;;;;4.33;3.03;;;;;;;;;;4994716;28;20236;-57
2022/01/07 07:58:09;;;;;;;8.97;4.17;;;;;;;;;;4990301;28;20228;-57
2022/01/07 08:00:35;;;;;;;4.90;3.20;;;;;;;;;;4987918;28;21815;-57
2022/01/07 08:03:01;;;;;;;5.57;3.20;;;;;;;;;;5003129;28;20247;-57
2022/01/07 08:05:27;;;;;;;5.00;2.50;;;;;;;;;;5010654;28;20808;-57
2022/01/07 08:07:53;;;;;;;3.80;2.73;;;;;;;;;;4995845;28;20363;-57
2022/01/07 08:10:23;;;;;;;7.43;2.80;;;;;;;;;;4988067;28;20235;-57
2022/01/07 08:13:14;;;;;;;7.27;3.20;;;;;;;;;;4982333;28;20243;-58
2022/01/07 08:18:24;;;;;;;6.30;2.80;;;;;;;;;;4993234;28;20300;-57
2022/01/07 08:20:53;;;;;;;4.23;2.73;;;;;;;;;;5003269;28;20692;-58
2022/01/07 08:23:19;;;;;;;5.67;2.60;;;;;;;;;;5002943;28;20305;-58
2022/01/07 08:25:45;;;;;;;4.77;2.50;;;;;;;;;;5003545;28;21817;-57
2022/01/07 08:28:13;;;;;;;3.80;2.37;;;;;;;;;;4997654;28;20228;-57
2022/01/07 08:31:01;;;;;;;3.03;2.30;;;;;;;;;;4992528;28;20287;-58
2022/01/07 08:36:12;;;;;;;2.63;2.10;;;;;;;;;;4991119;28;20242;-58
2022/01/07 08:38:37;;;;;;;5.00;1.93;;;;;;;;;;4998774;28;20232;-58
2022/01/07 08:41:03;;;;;;;3.77;2.03;;;;;;;;;;5001062;28;21755;-57
2022/01/07 08:43:29;;;;;;;3.83;2.17;;;;;;;;;;5004831;28;20263;-58
2022/01/07 08:45:55;;;;;;;3.17;2.07;;;;;;;;;;4999643;28;20224;-58
2022/01/07 08:48:21;;;;;;;3.10;2.20;;;;;;;;;;5002560;28;20233;-58
2022/01/07 08:50:47;;;;;;;2.23;1.70;;;;;;;;;;5004470;28;20915;-57
2022/01/07 08:53:13;;;;;;;3.20;1.60;;;;;;;;;;4996345;28;22489;-57
2022/01/07 08:55:39;;;;;;;2.43;1.70;;;;;;;;;;4996131;28;20237;-58
2022/01/07 08:58:06;;;;;;;1.70;1.60;;;;;;;;;;4995710;28;20692;-57
2022/01/07 09:00:32;;;;;;;5.67;1.90;;;;;;;;;;5005141;28;20718;-57
2022/01/07 09:02:58;;;;;;;5.10;1.93;;;;;;;;;;5004775;28;20243;-58
2022/01/07 09:05:24;;;;;;;1.83;1.50;;;;;;;;;;4999789;28;20255;-58
2022/01/07 09:07:50;;;;;;;3.03;1.90;;;;;;;;;;4992411;28;20372;-58
2022/01/07 09:10:16;;;;;;;2.13;1.93;;;;;;;;;;4995879;28;20232;-57
2022/01/07 09:12:42;;;;;;;2.67;1.80;;;;;;;;;;4996555;28;20316;-57
2022/01/07 09:15:08;;;;;;;2.20;1.90;;;;;;;;;;4994109;28;20240;-57
2022/01/07 09:17:35;;;;;;;2.10;1.90;;;;;;;;;;5002367;28;20231;-57
2022/01/07 09:20:01;;;;;;;1.70;1.60;;;;;;;;;;5002429;28;20225;-58
2022/01/07 09:22:27;;;;;;;1.80;1.70;;;;;;;;;;4996469;28;20614;-57
2022/01/07 09:24:53;;;;;;;1.97;1.80;;;;;;;;;;4987681;28;20224;-57
2022/01/07 09:27:19;;;;;;;1.70;1.60;;;;;;;;;;5005804;28;20651;-58
2022/01/07 09:29:46;;;;;;;1.73;1.60;;;;;;;;;;5001298;28;20743;-57
2022/01/07 09:32:12;;;;;;;2.53;1.70;;;;;;;;;;5002880;28;20927;-58
2022/01/07 09:34:38;;;;;;;1.30;1.20;;;;;;;;;;5011140;28;20238;-58
2022/01/07 09:37:04;;;;;;;1.80;1.70;;;;;;;;;;5007798;28;24663;-57
2022/01/07 09:39:31;;;;;;;3.23;1.40;;;;;;;;;;5000138;28;20235;-58
2022/01/07 09:41:57;;;;;;;1.40;1.30;;;;;;;;;;5016761;28;20265;-57
2022/01/07 09:44:23;;;;;;;1.73;1.60;;;;;;;;;;5016803;28;20234;-57
2022/01/07 09:46:49;;;;;;;1.50;1.40;;;;;;;;;;5019244;28;20274;-57
2022/01/07 09:49:15;;;;;;;2.33;1.57;;;;;;;;;;5015350;28;20229;-57
2022/01/07 09:51:41;;;;;;;2.13;1.57;;;;;;;;;;5018270;28;20228;-57
2022/01/07 09:54:07;;;;;;;2.70;1.40;;;;;;;;;;5013034;28;20806;-58
2022/01/07 09:56:33;;;;;;;2.80;1.50;;;;;;;;;;5019789;28;20713;-57
2022/01/07 09:59:04;;;;;;;1.53;1.40;;;;;;;;;;5018283;28;20221;-57
2022/01/07 10:01:30;;;;;;;2.73;1.70;;;;;;;;;;5015868;28;20244;-58
2022/01/07 10:03:56;;;;;;;1.87;1.50;;;;;;;;;;5014712;28;20235;-58
2022/01/07 10:06:22;;;;;;;1.50;1.40;;;;;;;;;;5006018;28;20240;-57
2022/01/07 10:09:00;;;;;;;2.93;1.70;;;;;;;;;;5005061;28;20231;-57
2022/01/07 10:11:26;;;;;;;2.37;1.60;;;;;;;;;;5008358;28;20584;-57
2022/01/07 10:14:12;;;;;;;3.87;1.70;;;;;;;;;;4999189;28;20795;-58
2022/01/07 10:16:48;;;;;;;2.17;1.50;;;;;;;;;;5009271;28;20276;-57
2022/01/07 10:19:33;;;;;;;1.77;1.67;;;;;;;;;;5002356;28;20247;-57
2022/01/07 10:21:59;;;;;;;1.93;1.53;;;;;;;;;;5010820;28;20240;-57
2022/01/07 10:24:25;;;;;;;1.80;1.53;;;;;;;;;;5004093;28;20609;-58
2022/01/07 10:27:10;;;;;;;1.80;1.70;;;;;;;;;;5003282;28;20387;-58
2022/01/07 10:29:42;;;;;;;1.40;1.30;;;;;;;;;;4998940;28;20600;-58
2022/01/07 10:32:27;;;;;;;1.43;1.33;;;;;;;;;;5012180;28;20315;-57
2022/01/07 10:35:13;;;;;;;2.00;1.40;;;;;;;;;;5016687;28;20850;-58
2022/01/07 10:37:46;;;;;;;2.10;1.67;;;;;;;;;;5010592;28;20235;-58
2022/01/07 10:40:25;;;;;;;3.10;1.47;;;;;;;;;;5011728;28;20240;-58
2022/01/07 10:42:53;;;;;;;3.27;1.50;;;;;;;;;;5008573;28;20310;-59
2022/01/07 10:45:19;;;;;;;3.10;1.80;;;;;;;;;;5010256;28;20275;-58
2022/01/07 10:47:51;;;;;;;1.93;1.70;;;;;;;;;;5010149;28;20235;-58
2022/01/07 10:50:17;;;;;;;2.07;1.87;;;;;;;;;;5008580;28;20239;-58
2022/01/07 10:52:44;;;;;;;2.13;1.90;;;;;;;;;;5003697;28;20233;-58
2022/01/07 10:55:14;;;;;;;2.20;1.67;;;;;;;;;;5010040;28;20244;-57
2022/01/07 10:57:41;;;;;;;1.97;1.80;;;;;;;;;;5013089;28;20298;-58
2022/01/07 11:00:08;;;;;;;1.97;1.70;;;;;;;;;;5003992;28;20783;-56
2022/01/07 11:02:34;;;;;;;2.40;1.70;;;;;;;;;;5002714;28;20382;-58
2022/01/07 11:05:00;;;;;;;2.47;1.90;;;;;;;;;;5019109;28;20764;-58
2022/01/07 11:07:26;;;;;;;2.00;1.60;;;;;;;;;;5011004;28;20220;-58
2022/01/07 11:09:52;;;;;;;2.10;1.47;;;;;;;;;;5023219;28;20239;-58
2022/01/07 11:12:18;;;;;;;2.33;1.53;;;;;;;;;;5007881;28;20246;-58
2022/01/07 11:14:44;;;;;;;2.63;1.40;;;;;;;;;;5016909;28;20922;-59
2022/01/07 11:17:12;;;;;;;1.87;1.50;;;;;;;;;;5000183;28;20221;-55
2022/01/07 11:19:39;;;;;;;2.77;1.57;;;;;;;;;;5015162;28;20224;-56
2022/01/07 11:22:05;;;;;;;1.87;1.70;;;;;;;;;;5002810;28;20228;-56
2022/01/07 11:24:32;;;;;;;2.47;1.40;;;;;;;;;;5011425;28;20239;-57
2022/01/07 11:26:58;;;;;;;1.70;1.30;;;;;;;;;;5010675;28;20240;-56
2022/01/07 11:29:24;;;;;;;2.93;1.40;;;;;;;;;;5003119;28;20381;-57
2022/01/07 11:31:53;;;;;;;4.50;1.70;;;;;;;;;;5010465;28;20240;-56
2022/01/07 11:34:19;;;;;;;1.90;1.37;;;;;;;;;;5006839;28;20224;-57
2022/01/07 11:36:45;;;;;;;1.70;1.30;;;;;;;;;;5007857;28;20692;-56
2022/01/07 11:39:11;;;;;;;2.30;1.30;;;;;;;;;;5001194;28;20787;-56
2022/01/07 11:41:44;;;;;;;2.37;1.33;;;;;;;;;;4999078;28;20225;-57
2022/01/07 11:44:11;;;;;;;2.40;1.40;;;;;;;;;;4980009;28;20385;-57
2022/01/07 11:46:37;;;;;;;1.63;1.30;;;;;;;;;;5004589;28;20371;-56
2022/01/07 11:49:03;;;;;;;3.23;1.47;;;;;;;;;;5004012;28;20295;-56
2022/01/07 11:51:39;;;;;;;2.13;1.60;;;;;;;;;;5008498;28;25220;-56
2022/01/07 11:54:05;;;;;;;1.97;1.40;;;;;;;;;;5001070;28;25011;-56
2022/01/07 11:56:31;;;;;;;2.93;1.80;;;;;;;;;;4990225;28;20327;-56
2022/01/07 11:58:58;;;;;;;3.10;1.77;;;;;;;;;;4985324;28;20235;-57
2022/01/07 12:01:37;;;;;;;4.70;2.17;;;;;;;;;;4989797;28;21258;-56
2022/01/07 12:04:27;;;;;;;3.97;1.70;;;;;;;;;;4999898;28;20239;-57
2022/01/07 12:06:53;;;;;;;3.80;1.90;;;;;;;;;;4996202;28;20232;-56
2022/01/07 12:09:20;;;;;;;2.57;1.83;;;;;;;;;;4992726;28;20568;-57
2022/01/07 12:11:53;;;;;;;3.63;1.97;;;;;;;;;;4992822;28;20233;-56
2022/01/07 12:14:20;;;;;;;2.60;2.13;;;;;;;;;;4997982;28;20270;-57
2022/01/07 12:16:47;;;;;;;5.67;2.13;;;;;;;;;;5002365;28;20231;-56
2022/01/07 12:19:13;;;;;;;3.70;2.20;;;;;;;;;;5003264;28;20286;-56
2022/01/07 12:21:39;;;;;;;2.73;2.00;;;;;;;;;;5008824;28;20648;-56
2022/01/07 12:24:06;;;;;;;4.17;2.20;;;;;;;;;;5004828;28;20302;-56
2022/01/07 12:26:32;;;;;;;4.73;2.27;;;;;;;;;;5015164;28;20271;-56
2022/01/07 12:28:58;;;;;;;2.87;2.33;;;;;;;;;;5002581;28;20604;-57
2022/01/07 12:31:23;;;;;;;4.80;2.40;;;;;;;;;;5006510;28;20228;-56
2022/01/07 12:33:50;;;;;;;6.07;2.50;;;;;;;;;;5006898;28;20694;-56
2022/01/07 12:36:25;;;;;;;4.77;2.20;;;;;;;;;;5009287;28;20242;-56
2022/01/07 12:39:04;;;;;;;6.43;2.60;;;;;;;;;;5005150;28;20938;-56
2022/01/07 12:41:30;;;;;;;5.87;2.53;;;;;;;;;;5011945;28;20247;-56
2022/01/07 12:44:06;;;;;;;5.17;2.63;;;;;;;;;;5013424;28;20285;-56
2022/01/07 12:46:32;;;;;;;5.93;2.70;;;;;;;;;;5016016;28;20232;-56
2022/01/07 12:48:57;;;;;;;6.03;2.77;;;;;;;;;;5007424;28;20330;-56
2022/01/07 12:51:23;;;;;;;5.90;2.50;;;;;;;;;;5011635;28;20279;-56
2022/01/07 12:54:03;;;;;;;4.43;2.53;;;;;;;;;;5000683;28;20233;-56
2022/01/07 12:56:29;;;;;;;5.83;3.07;;;;;;;;;;5016296;28;22185;-56
2022/01/07 12:58:56;;;;;;;7.77;3.17;;;;;;;;;;5009123;28;20661;-56
2022/01/07 13:01:28;;;;;;;4.97;2.57;;;;;;;;;;4991042;28;20327;-56
2022/01/07 13:04:04;;;;;;;8.17;3.17;;;;;;;;;;4996600;28;20303;-56
2022/01/07 13:06:30;;;;;;;6.73;2.77;;;;;;;;;;5003592;28;20281;-56
2022/01/07 13:08:56;;;;;;;5.77;3.30;;;;;;;;;;4996352;28;20240;-56
2022/01/07 13:11:22;;;;;;;5.07;2.80;;;;;;;;;;5001790;28;20248;-56
2022/01/07 13:14:00;;;;;;;7.97;2.83;;;;;;;;;;5000050;28;20235;-56
2022/01/07 13:16:28;;;;;;;8.43;3.13;;;;;;;;;;5000301;28;20598;-57
2022/01/07 13:19:00;;;;;;;8.80;3.27;;;;;;;;;;5004026;28;20236;-57
2022/01/07 13:21:26;;;;;;;8.37;3.57;;;;;;;;;;5017812;28;20322;-56
2022/01/07 13:23:52;;;;;;;7.27;3.33;;;;;;;;;;5020446;28;20271;-57
2022/01/07 13:26:18;;;;;;;8.20;2.97;;;;;;;;;;5018324;28;20234;-56
2022/01/07 13:28:48;;;;;;;9.70;3.20;;;;;;;;;;5019803;28;20714;-57
2022/01/07 13:31:14;;;;;;;5.23;2.80;;;;;;;;;;5009265;28;20865;-56
2022/01/07 13:33:41;;;;;;;5.93;2.90;;;;;;;;;;5014352;28;20228;-56
2022/01/07 13:36:11;;;;;;;6.37;2.80;;;;;;;;;;5001400;28;20294;-56
2022/01/07 13:38:37;;;;;;;9.80;3.27;;;;;;;;;;5012257;28;20901;-56
2022/01/07 13:41:04;;;;;;;6.90;3.70;;;;;;;;;;5005303;28;20251;-56
2022/01/07 13:43:30;;;;;;;5.10;2.67;;;;;;;;;;5000488;28;20240;-56
2022/01/07 13:46:07;;;;;;;6.40;3.57;;;;;;;;;;5006444;28;20236;-56
2022/01/07 13:48:32;;;;;;;8.63;3.47;;;;;;;;;;5019583;28;20704;-56
2022/01/07 13:51:08;;;;;;;7.13;3.03;;;;;;;;;;5010937;28;20235;-56
2022/01/07 13:53:34;;;;;;;5.70;3.00;;;;;;;;;;5006950;28;20674;-57
2022/01/07 13:56:06;;;;;;;6.17;2.70;;;;;;;;;;5011653;28;20233;-57
2022/01/07 13:58:32;;;;;;;5.33;2.70;;;;;;;;;;5014140;28;20236;-58
2022/01/07 14:01:04;;;;;;;4.33;2.57;;;;;;;;;;5010156;28;20243;-56
2022/01/07 14:03:30;;;;;;;6.07;2.80;;;;;;;;;;4999399;28;20244;-56
2022/01/07 14:06:02;;;;;;;6.23;2.57;;;;;;;;;;5012251;28;20745;-56
2022/01/07 14:08:28;;;;;;;4.80;2.10;;;;;;;;;;5011262;28;20235;-57
2022/01/07 14:10:54;;;;;;;2.50;2.00;;;;;;;;;;5004924;28;20734;-57
2022/01/07 14:13:21;;;;;;;4.20;2.00;;;;;;;;;;5001290;28;20606;-57
2022/01/07 14:15:54;;;;;;;3.63;1.60;;;;;;;;;;5009261;28;20237;-56
2022/01/07 14:18:21;;;;;;;3.67;1.97;;;;;;;;;;5013426;28;20244;-57
2022/01/07 14:21:01;;;;;;;3.57;1.97;;;;;;;;;;5014411;28;20239;-57
2022/01/07 14:23:29;;;;;;;3.93;1.60;;;;;;;;;;5005996;28;20233;-56
2022/01/07 14:26:02;;;;;;;3.70;1.90;;;;;;;;;;5014449;28;20236;-58
2022/01/07 14:28:28;;;;;;;2.93;1.67;;;;;;;;;;5008073;28;20354;-57
2022/01/07 14:30:54;;;;;;;2.03;1.60;;;;;;;;;;4999494;28;20220;-57
2022/01/07 14:33:20;;;;;;;2.20;1.83;;;;;;;;;;5000833;28;22791;-56
2022/01/07 14:35:47;;;;;;;3.20;1.93;;;;;;;;;;4996264;28;20301;-56
2022/01/07 14:38:13;;;;;;;3.30;1.70;;;;;;;;;;5008486;28;20232;-57
2022/01/07 14:40:41;;;;;;;2.70;1.60;;;;;;;;;;5008160;28;20706;-56
2022/01/07 14:43:07;;;;;;;2.50;2.00;;;;;;;;;;5009526;28;20483;-56
2022/01/07 14:45:33;;;;;;;2.90;1.83;;;;;;;;;;5016156;28;20254;-57
2022/01/07 14:47:59;;;;;;;2.73;1.63;;;;;;;;;;5012033;28;20743;-56
2022/01/07 14:50:25;;;;;;;3.13;2.00;;;;;;;;;;5019655;28;22089;-56
2022/01/07 14:52:51;;;;;;;3.53;1.90;;;;;;;;;;5016817;28;20231;-56